F/V Barr Avel — FHAO — position and weather

sailwx.info

Track history (hours):
 
Tides and Currents Weather Stations Pressure Air Temp Water Temp Dewpoint Dewpoint Depression Visibility Wind Speed Wind Dir Waves Ship Positions

F/V Barr Avel

Last reported at 2017-Nov-19 22:36 UTC. Time now 2017-Nov-21 15:50 UTC.
Position N 48°06' W 004°19'.

Length 16 m.

Type: Fishing. MMSI: 228293000.

Date/timePositionNaut miles runAvg speedWind from/ knotsBaromVisibWave heightAir tempDewpointWater temp
2017-Nov-19 22:36N 48°06' W 004°19'0 0.5
2017-Nov-19 22:30N 48°06' W 004°19'0 0.0
2017-Nov-19 22:01N 48°06' W 004°19'0 0.0
2017-Nov-19 21:31N 48°06' W 004°19'0 0.0
2017-Nov-19 21:00N 48°06' W 004°19'3 7.0
2017-Nov-19 20:31N 48°09' W 004°22'5 9.5
2017-Nov-19 20:01N 48°12' W 004°28'1 2.1
2017-Nov-19 19:30N 48°12' W 004°29'2 3.3
2017-Nov-19 19:01N 48°12' W 004°27'4 8.2
2017-Nov-19 18:30N 48°08' W 004°26'3 6.9
2017-Nov-19 18:01N 48°07' W 004°31'5 9.0
2017-Nov-19 17:30N 48°10' W 004°27'1 2.2
2017-Nov-19 17:01N 48°10' W 004°25'1 1.6
2017-Nov-19 16:31N 48°11' W 004°24'1 2.7
2017-Nov-19 16:00N 48°10' W 004°23'3 6.6
2017-Nov-19 15:31N 48°08' W 004°19'2 4.5
2017-Nov-19 15:00N 48°06' W 004°19'  
2017-Nov-16 19:52N 48°06' W 004°19'3 7.5
2017-Nov-16 19:30N 48°07' W 004°23'5 9.1
2017-Nov-16 19:00N 48°06' W 004°30'1 1.2
2017-Nov-16 18:31N 48°06' W 004°31'3 5.4
2017-Nov-16 18:00N 48°08' W 004°27'4 7.9
2017-Nov-16 17:30N 48°09' W 004°22'1 2.7
2017-Nov-16 17:00N 48°08' W 004°23'1 1.5
2017-Nov-16 16:30N 48°08' W 004°23'1 1.8
2017-Nov-16 16:00N 48°08' W 004°24'3 7.0
2017-Nov-16 15:30N 48°06' W 004°20'0 0.0
2017-Nov-16 15:00N 48°06' W 004°20'0 0.0
2017-Nov-15 23:42N 48°06' W 004°19'0 0.0
2017-Nov-15 23:31N 48°06' W 004°19'0 0.0
2017-Nov-15 23:00N 48°06' W 004°19'0 0.0
2017-Nov-15 22:31N 48°06' W 004°19'1 2.6
2017-Nov-15 22:01N 48°07' W 004°20'2 4.8
2017-Nov-15 21:30N 48°09' W 004°22'1 1.7
2017-Nov-15 21:00N 48°10' W 004°23'0 0.1
2017-Nov-15 20:30N 48°10' W 004°23'1 1.1
2017-Nov-15 20:01N 48°10' W 004°24'1 2.7
2017-Nov-15 19:30N 48°11' W 004°25'4 7.6
2017-Nov-15 19:00N 48°07' W 004°27'2 5.0
2017-Nov-15 18:30N 48°06' W 004°31'1 3.0
2017-Nov-15 18:01N 48°07' W 004°29'2 4.2
2017-Nov-15 17:30N 48°09' W 004°29'0 0.6
2017-Nov-15 17:00N 48°09' W 004°28'1 1.5
2017-Nov-15 16:29N 48°08' W 004°28'2 3.9
2017-Nov-15 16:00N 48°08' W 004°25'4 8.6
2017-Nov-15 15:30N 48°06' W 004°19'0 0.3
2017-Nov-15 14:59N 48°06' W 004°20'0 0.0
2017-Nov-14 22:37N 48°06' W 004°19'0 0.0
2017-Nov-14 22:30N 48°06' W 004°19'0 0.0
2017-Nov-14 22:01N 48°06' W 004°19'1 2.4
2017-Nov-14 21:31N 48°07' W 004°20'5 9.2
2017-Nov-14 21:01N 48°10' W 004°26'2 3.8
2017-Nov-14 20:29N 48°08' W 004°28'2 4.8
2017-Nov-14 20:01N 48°07' W 004°25'0 0.2
2017-Nov-14 19:30N 48°07' W 004°25'1 2.9
2017-Nov-14 19:00N 48°07' W 004°23'0 0.6
2017-Nov-14 18:31N 48°08' W 004°23'2 4.5
2017-Nov-14 17:59N 48°10' W 004°22'2 5.1
2017-Nov-14 17:30N 48°08' W 004°24'1 1.5
2017-Nov-14 17:00N 48°08' W 004°25'4 8.3
2017-Nov-14 16:30N 48°06' W 004°19'0 0.6
2017-Nov-14 16:00N 48°06' W 004°19'0 0.0
2017-Nov-14 00:39N 48°06' W 004°19'0 0.0
2017-Nov-14 00:31N 48°06' W 004°19'0 0.0
2017-Nov-14 00:00N 48°06' W 004°19'0 0.0
2017-Nov-13 23:31N 48°06' W 004°19'0 0.0
2017-Nov-13 23:00N 48°06' W 004°19'0 0.0
2017-Nov-13 22:30N 48°06' W 004°19'0 0.0
2017-Nov-13 22:01N 48°06' W 004°19'  
2017-Nov-09 23:34N 48°06' W 004°19'0 0.1
2017-Nov-09 23:30N 48°06' W 004°19'0 0.0
2017-Nov-09 23:00N 48°06' W 004°19'  
Track history (hours):
 
Tides and Currents Weather Stations Pressure Air Temp Water Temp Dewpoint Dewpoint Depression Visibility Wind Speed Wind Dir Waves Ship Positions

F/V Barr Avel

Last reported at 2017-Nov-19 22:36 UTC. Time now 2017-Nov-21 15:50 UTC.
Position N 48°06' W 004°19'.

Length 16 m.

Type: Fishing. MMSI: 228293000.

Date/timePositionNaut miles runAvg speedWind from/ knotsBaromVisibWave heightAir tempDewpointWater temp
2017-Nov-19 22:36N 48°06' W 004°19'0 0.5
2017-Nov-19 22:30N 48°06' W 004°19'0 0.0
2017-Nov-19 22:01N 48°06' W 004°19'0 0.0
2017-Nov-19 21:31N 48°06' W 004°19'0 0.0
2017-Nov-19 21:00N 48°06' W 004°19'3 7.0
2017-Nov-19 20:31N 48°09' W 004°22'5 9.5
2017-Nov-19 20:01N 48°12' W 004°28'1 2.1
2017-Nov-19 19:30N 48°12' W 004°29'2 3.3
2017-Nov-19 19:01N 48°12' W 004°27'4 8.2
2017-Nov-19 18:30N 48°08' W 004°26'3 6.9
2017-Nov-19 18:01N 48°07' W 004°31'5 9.0
2017-Nov-19 17:30N 48°10' W 004°27'1 2.2
2017-Nov-19 17:01N 48°10' W 004°25'1 1.6
2017-Nov-19 16:31N 48°11' W 004°24'1 2.7
2017-Nov-19 16:00N 48°10' W 004°23'3 6.6
2017-Nov-19 15:31N 48°08' W 004°19'2 4.5
2017-Nov-19 15:00N 48°06' W 004°19'  
2017-Nov-16 19:52N 48°06' W 004°19'3 7.5
2017-Nov-16 19:30N 48°07' W 004°23'5 9.1
2017-Nov-16 19:00N 48°06' W 004°30'1 1.2
2017-Nov-16 18:31N 48°06' W 004°31'3 5.4
2017-Nov-16 18:00N 48°08' W 004°27'4 7.9
2017-Nov-16 17:30N 48°09' W 004°22'1 2.7
2017-Nov-16 17:00N 48°08' W 004°23'1 1.5
2017-Nov-16 16:30N 48°08' W 004°23'1 1.8
2017-Nov-16 16:00N 48°08' W 004°24'3 7.0
2017-Nov-16 15:30N 48°06' W 004°20'0 0.0
2017-Nov-16 15:00N 48°06' W 004°20'0 0.0
2017-Nov-15 23:42N 48°06' W 004°19'0 0.0
2017-Nov-15 23:31N 48°06' W 004°19'0 0.0
2017-Nov-15 23:00N 48°06' W 004°19'0 0.0
2017-Nov-15 22:31N 48°06' W 004°19'1 2.6
2017-Nov-15 22:01N 48°07' W 004°20'2 4.8
2017-Nov-15 21:30N 48°09' W 004°22'1 1.7
2017-Nov-15 21:00N 48°10' W 004°23'0 0.1
2017-Nov-15 20:30N 48°10' W 004°23'1 1.1
2017-Nov-15 20:01N 48°10' W 004°24'1 2.7
2017-Nov-15 19:30N 48°11' W 004°25'4 7.6
2017-Nov-15 19:00N 48°07' W 004°27'2 5.0
2017-Nov-15 18:30N 48°06' W 004°31'1 3.0
2017-Nov-15 18:01N 48°07' W 004°29'2 4.2
2017-Nov-15 17:30N 48°09' W 004°29'0 0.6
2017-Nov-15 17:00N 48°09' W 004°28'1 1.5
2017-Nov-15 16:29N 48°08' W 004°28'2 3.9
2017-Nov-15 16:00N 48°08' W 004°25'4 8.6
2017-Nov-15 15:30N 48°06' W 004°19'0 0.3
2017-Nov-15 14:59N 48°06' W 004°20'0 0.0
2017-Nov-14 22:37N 48°06' W 004°19'0 0.0
2017-Nov-14 22:30N 48°06' W 004°19'0 0.0
2017-Nov-14 22:01N 48°06' W 004°19'1 2.4
2017-Nov-14 21:31N 48°07' W 004°20'5 9.2
2017-Nov-14 21:01N 48°10' W 004°26'2 3.8
2017-Nov-14 20:29N 48°08' W 004°28'2 4.8
2017-Nov-14 20:01N 48°07' W 004°25'0 0.2
2017-Nov-14 19:30N 48°07' W 004°25'1 2.9
2017-Nov-14 19:00N 48°07' W 004°23'0 0.6
2017-Nov-14 18:31N 48°08' W 004°23'2 4.5
2017-Nov-14 17:59N 48°10' W 004°22'2 5.1
2017-Nov-14 17:30N 48°08' W 004°24'1 1.5
2017-Nov-14 17:00N 48°08' W 004°25'4 8.3
2017-Nov-14 16:30N 48°06' W 004°19'0 0.6
2017-Nov-14 16:00N 48°06' W 004°19'0 0.0
2017-Nov-14 00:39N 48°06' W 004°19'0 0.0
2017-Nov-14 00:31N 48°06' W 004°19'0 0.0
2017-Nov-14 00:00N 48°06' W 004°19'0 0.0
2017-Nov-13 23:31N 48°06' W 004°19'0 0.0
2017-Nov-13 23:00N 48°06' W 004°19'0 0.0
2017-Nov-13 22:30N 48°06' W 004°19'0 0.0
2017-Nov-13 22:01N 48°06' W 004°19'  
2017-Nov-09 23:34N 48°06' W 004°19'0 0.1
2017-Nov-09 23:30N 48°06' W 004°19'0 0.0
2017-Nov-09 23:00N 48°06' W 004°19'  

Dump ship's entire track history